FZBU weather

Ipeke Airport
Ipeke, Bandundu Province, Congo (Kinshasa)

Public forecast

Using degrees Celsius for public forecast. Weather courtesy of forecast.io.

METAR (pilot weather report)

Report is more than 6 hours old.

Closest report is Gamboma Airport, 147.2 nm (272.6 km) WNW. Retrieved 2017/03/27 15:00 UTC (2 years ago):

FCOG 271500Z 36004KT 9999 FEW023 35/22 Q////

TAF (pilot weather forecast)

Closest forecast is Ndjili International Airport, 203.3 nm (376.5 km) SW. Retrieved 2019/02/19 12:00 UTC (6 hours ago):

TAF FZAA 191100Z 1912/2018 32010KT 8000 SCT024 FEW030CB PROB30 TEMPO 1916/1920 TS BECMG 1921/1923 22004KT BECMG 2006/2008 BKN016